sensor_id;sensor_type;location;lat;lon;timestamp;P1;durP1;ratioP1;P2;durP2;ratioP2
54121;SDS011;40029;58.708;50.190;2022-10-16T00:03:24;20.25;;;8.85;;
54121;SDS011;40029;58.708;50.190;2022-10-16T00:05:58;28.17;;;9.13;;
54121;SDS011;40029;58.708;50.190;2022-10-16T00:08:31;26.65;;;8.88;;
54121;SDS011;40029;58.708;50.190;2022-10-16T00:11:04;23.98;;;9.40;;
54121;SDS011;40029;58.708;50.190;2022-10-16T00:13:38;19.25;;;8.13;;
54121;SDS011;40029;58.708;50.190;2022-10-16T00:16:11;23.42;;;7.85;;
54121;SDS011;40029;58.708;50.190;2022-10-16T00:18:43;16.90;;;8.27;;
54121;SDS011;40029;58.708;50.190;2022-10-16T00:21:16;29.35;;;9.35;;
54121;SDS011;40029;58.708;50.190;2022-10-16T00:24:08;23.55;;;8.75;;
54121;SDS011;40029;58.708;50.190;2022-10-16T00:26:41;23.55;;;8.15;;
54121;SDS011;40029;58.708;50.190;2022-10-16T00:29:12;17.90;;;7.43;;
54121;SDS011;40029;58.708;50.190;2022-10-16T00:31:43;16.80;;;7.13;;
54121;SDS011;40029;58.708;50.190;2022-10-16T00:34:14;22.17;;;9.48;;
54121;SDS011;40029;58.708;50.190;2022-10-16T00:36:45;14.93;;;7.47;;
54121;SDS011;40029;58.708;50.190;2022-10-16T00:39:16;18.80;;;7.63;;
54121;SDS011;40029;58.708;50.190;2022-10-16T00:41:48;17.67;;;7.65;;
54121;SDS011;40029;58.708;50.190;2022-10-16T00:47:29;21.23;;;7.28;;
54121;SDS011;40029;58.708;50.190;2022-10-16T00:50:07;17.27;;;7.63;;
54121;SDS011;40029;58.708;50.190;2022-10-16T00:52:42;18.00;;;7.53;;
54121;SDS011;40029;58.708;50.190;2022-10-16T00:55:17;19.23;;;7.63;;
54121;SDS011;40029;58.708;50.190;2022-10-16T00:57:48;14.98;;;7.88;;
54121;SDS011;40029;58.708;50.190;2022-10-16T01:00:21;17.58;;;6.90;;
54121;SDS011;40029;58.708;50.190;2022-10-16T01:02:55;16.23;;;7.33;;
54121;SDS011;40029;58.708;50.190;2022-10-16T01:05:50;11.57;;;6.78;;
54121;SDS011;40029;58.708;50.190;2022-10-16T01:08:33;22.05;;;10.13;;
54121;SDS011;40029;58.708;50.190;2022-10-16T01:11:17;15.52;;;9.82;;
54121;SDS011;40029;58.708;50.190;2022-10-16T01:13:54;22.13;;;9.27;;
54121;SDS011;40029;58.708;50.190;2022-10-16T01:22:11;20.70;;;8.18;;
54121;SDS011;40029;58.708;50.190;2022-10-16T01:24:48;22.92;;;9.63;;
54121;SDS011;40029;58.708;50.190;2022-10-16T01:27:21;19.13;;;8.70;;
54121;SDS011;40029;58.708;50.190;2022-10-16T01:30:09;18.95;;;9.40;;
54121;SDS011;40029;58.708;50.190;2022-10-16T01:33:03;20.02;;;8.32;;
54121;SDS011;40029;58.708;50.190;2022-10-16T01:35:39;13.20;;;7.15;;
54121;SDS011;40029;58.708;50.190;2022-10-16T01:38:25;19.98;;;7.80;;
54121;SDS011;40029;58.708;50.190;2022-10-16T01:41:24;21.40;;;7.35;;
54121;SDS011;40029;58.708;50.190;2022-10-16T01:44:06;21.60;;;8.35;;
54121;SDS011;40029;58.708;50.190;2022-10-16T01:46:44;18.08;;;7.22;;
54121;SDS011;40029;58.708;50.190;2022-10-16T01:49:19;19.55;;;8.10;;
54121;SDS011;40029;58.708;50.190;2022-10-16T01:51:54;16.50;;;7.18;;
54121;SDS011;40029;58.708;50.190;2022-10-16T01:54:30;19.25;;;8.15;;
54121;SDS011;40029;58.708;50.190;2022-10-16T01:57:04;17.05;;;7.22;;
54121;SDS011;40029;58.708;50.190;2022-10-16T01:59:46;17.65;;;6.82;;
54121;SDS011;40029;58.708;50.190;2022-10-16T02:02:19;16.48;;;6.55;;
54121;SDS011;40029;58.708;50.190;2022-10-16T02:04:53;18.42;;;7.43;;
54121;SDS011;40029;58.708;50.190;2022-10-16T02:07:29;16.95;;;6.90;;
54121;SDS011;40029;58.708;50.190;2022-10-16T02:10:00;14.10;;;6.22;;
54121;SDS011;40029;58.708;50.190;2022-10-16T02:12:33;10.50;;;6.47;;
54121;SDS011;40029;58.708;50.190;2022-10-16T02:15:10;12.10;;;5.72;;
54121;SDS011;40029;58.708;50.190;2022-10-16T02:17:41;14.70;;;6.18;;
54121;SDS011;40029;58.708;50.190;2022-10-16T02:20:12;10.57;;;5.15;;
54121;SDS011;40029;58.708;50.190;2022-10-16T02:22:43;14.23;;;6.25;;
54121;SDS011;40029;58.708;50.190;2022-10-16T02:25:22;12.23;;;5.85;;
54121;SDS011;40029;58.708;50.190;2022-10-16T02:28:00;21.02;;;7.45;;
54121;SDS011;40029;58.708;50.190;2022-10-16T02:33:04;15.60;;;6.18;;
54121;SDS011;40029;58.708;50.190;2022-10-16T02:35:37;19.53;;;7.53;;
54121;SDS011;40029;58.708;50.190;2022-10-16T02:38:09;13.82;;;7.32;;
54121;SDS011;40029;58.708;50.190;2022-10-16T02:40:41;14.30;;;7.22;;
54121;SDS011;40029;58.708;50.190;2022-10-16T02:43:13;16.08;;;7.10;;
54121;SDS011;40029;58.708;50.190;2022-10-16T02:45:44;15.18;;;7.30;;
54121;SDS011;40029;58.708;50.190;2022-10-16T02:48:15;18.00;;;6.85;;
54121;SDS011;40029;58.708;50.190;2022-10-16T02:50:46;19.42;;;7.65;;
54121;SDS011;40029;58.708;50.190;2022-10-16T02:53:17;15.20;;;7.10;;
54121;SDS011;40029;58.708;50.190;2022-10-16T02:55:48;20.25;;;6.90;;
54121;SDS011;40029;58.708;50.190;2022-10-16T02:58:19;16.35;;;6.53;;
54121;SDS011;40029;58.708;50.190;2022-10-16T03:00:50;22.52;;;7.72;;
54121;SDS011;40029;58.708;50.190;2022-10-16T03:03:21;25.30;;;8.60;;
54121;SDS011;40029;58.708;50.190;2022-10-16T03:05:52;19.95;;;8.02;;
54121;SDS011;40029;58.708;50.190;2022-10-16T03:08:23;17.02;;;7.20;;
54121;SDS011;40029;58.708;50.190;2022-10-16T03:10:55;13.57;;;6.22;;
54121;SDS011;40029;58.708;50.190;2022-10-16T03:13:27;12.38;;;6.13;;
54121;SDS011;40029;58.708;50.190;2022-10-16T03:15:58;15.25;;;7.07;;
54121;SDS011;40029;58.708;50.190;2022-10-16T03:18:29;12.93;;;6.32;;
54121;SDS011;40029;58.708;50.190;2022-10-16T03:21:00;13.43;;;6.35;;
54121;SDS011;40029;58.708;50.190;2022-10-16T03:23:31;18.75;;;7.32;;
54121;SDS011;40029;58.708;50.190;2022-10-16T03:26:02;19.67;;;6.40;;
54121;SDS011;40029;58.708;50.190;2022-10-16T03:28:33;12.63;;;6.00;;
54121;SDS011;40029;58.708;50.190;2022-10-16T03:31:04;16.45;;;6.65;;
54121;SDS011;40029;58.708;50.190;2022-10-16T03:33:35;15.70;;;6.50;;
54121;SDS011;40029;58.708;50.190;2022-10-16T03:36:06;16.77;;;6.55;;
54121;SDS011;40029;58.708;50.190;2022-10-16T03:38:37;10.75;;;5.90;;
54121;SDS011;40029;58.708;50.190;2022-10-16T03:41:08;19.92;;;6.38;;
54121;SDS011;40029;58.708;50.190;2022-10-16T03:43:39;12.13;;;5.63;;
54121;SDS011;40029;58.708;50.190;2022-10-16T03:46:10;13.02;;;6.28;;
54121;SDS011;40029;58.708;50.190;2022-10-16T03:48:41;15.18;;;6.25;;
54121;SDS011;40029;58.708;50.190;2022-10-16T03:51:12;21.52;;;6.93;;
54121;SDS011;40029;58.708;50.190;2022-10-16T03:53:43;15.88;;;7.75;;
54121;SDS011;40029;58.708;50.190;2022-10-16T03:56:14;25.58;;;7.93;;
54121;SDS011;40029;58.708;50.190;2022-10-16T03:58:45;22.60;;;8.63;;
54121;SDS011;40029;58.708;50.190;2022-10-16T04:01:16;18.38;;;7.78;;
54121;SDS011;40029;58.708;50.190;2022-10-16T04:03:47;18.38;;;7.32;;
54121;SDS011;40029;58.708;50.190;2022-10-16T04:06:18;16.88;;;7.05;;
54121;SDS011;40029;58.708;50.190;2022-10-16T04:08:49;17.83;;;6.90;;
54121;SDS011;40029;58.708;50.190;2022-10-16T04:11:20;17.08;;;7.65;;
54121;SDS011;40029;58.708;50.190;2022-10-16T04:13:51;9.77;;;6.15;;
54121;SDS011;40029;58.708;50.190;2022-10-16T04:16:22;15.05;;;6.85;;
54121;SDS011;40029;58.708;50.190;2022-10-16T04:18:53;13.73;;;6.90;;
54121;SDS011;40029;58.708;50.190;2022-10-16T04:21:24;16.08;;;6.70;;
54121;SDS011;40029;58.708;50.190;2022-10-16T04:23:55;13.70;;;5.47;;
54121;SDS011;40029;58.708;50.190;2022-10-16T04:26:26;10.75;;;6.00;;
54121;SDS011;40029;58.708;50.190;2022-10-16T04:28:57;17.55;;;5.68;;
54121;SDS011;40029;58.708;50.190;2022-10-16T04:31:28;11.48;;;6.50;;
54121;SDS011;40029;58.708;50.190;2022-10-16T04:33:59;13.07;;;6.45;;
54121;SDS011;40029;58.708;50.190;2022-10-16T04:36:30;15.27;;;6.88;;
54121;SDS011;40029;58.708;50.190;2022-10-16T04:39:01;10.63;;;6.10;;
54121;SDS011;40029;58.708;50.190;2022-10-16T04:41:32;12.07;;;6.40;;
54121;SDS011;40029;58.708;50.190;2022-10-16T04:44:03;13.00;;;6.97;;
54121;SDS011;40029;58.708;50.190;2022-10-16T04:46:34;12.73;;;6.72;;
54121;SDS011;40029;58.708;50.190;2022-10-16T04:49:05;16.52;;;8.30;;
54121;SDS011;40029;58.708;50.190;2022-10-16T04:51:36;18.73;;;7.20;;
54121;SDS011;40029;58.708;50.190;2022-10-16T04:54:08;14.48;;;5.88;;
54121;SDS011;40029;58.708;50.190;2022-10-16T04:56:40;20.98;;;7.38;;
54121;SDS011;40029;58.708;50.190;2022-10-16T04:59:18;35.85;;;14.20;;
54121;SDS011;40029;58.708;50.190;2022-10-16T05:01:49;37.47;;;13.57;;
54121;SDS011;40029;58.708;50.190;2022-10-16T05:04:20;67.00;;;21.77;;
54121;SDS011;40029;58.708;50.190;2022-10-16T05:06:51;25.73;;;10.52;;
54121;SDS011;40029;58.708;50.190;2022-10-16T05:09:22;28.50;;;9.85;;
54121;SDS011;40029;58.708;50.190;2022-10-16T05:11:53;12.65;;;5.63;;
54121;SDS011;40029;58.708;50.190;2022-10-16T05:14:24;14.82;;;7.78;;
54121;SDS011;40029;58.708;50.190;2022-10-16T05:16:55;14.20;;;5.38;;
54121;SDS011;40029;58.708;50.190;2022-10-16T05:19:26;12.30;;;5.70;;
54121;SDS011;40029;58.708;50.190;2022-10-16T05:21:57;11.25;;;5.50;;
54121;SDS011;40029;58.708;50.190;2022-10-16T05:24:28;10.35;;;4.18;;
54121;SDS011;40029;58.708;50.190;2022-10-16T05:26:59;5.30;;;3.42;;
54121;SDS011;40029;58.708;50.190;2022-10-16T05:29:30;10.57;;;5.57;;
54121;SDS011;40029;58.708;50.190;2022-10-16T05:32:02;8.57;;;4.57;;
54121;SDS011;40029;58.708;50.190;2022-10-16T05:34:33;11.90;;;4.40;;
54121;SDS011;40029;58.708;50.190;2022-10-16T05:37:04;9.55;;;4.28;;
54121;SDS011;40029;58.708;50.190;2022-10-16T05:39:35;8.55;;;4.57;;
54121;SDS011;40029;58.708;50.190;2022-10-16T05:42:07;8.43;;;4.15;;
54121;SDS011;40029;58.708;50.190;2022-10-16T05:44:38;9.15;;;4.38;;
54121;SDS011;40029;58.708;50.190;2022-10-16T05:47:09;13.88;;;5.30;;
54121;SDS011;40029;58.708;50.190;2022-10-16T05:49:41;9.98;;;5.70;;
54121;SDS011;40029;58.708;50.190;2022-10-16T05:52:12;11.90;;;5.68;;
54121;SDS011;40029;58.708;50.190;2022-10-16T05:54:43;15.30;;;5.90;;
54121;SDS011;40029;58.708;50.190;2022-10-16T05:57:14;10.82;;;5.32;;
54121;SDS011;40029;58.708;50.190;2022-10-16T05:59:45;10.73;;;6.60;;
54121;SDS011;40029;58.708;50.190;2022-10-16T06:02:16;10.70;;;5.57;;
54121;SDS011;40029;58.708;50.190;2022-10-16T06:04:47;13.25;;;6.38;;
54121;SDS011;40029;58.708;50.190;2022-10-16T06:07:18;13.85;;;6.55;;
54121;SDS011;40029;58.708;50.190;2022-10-16T06:09:50;13.40;;;6.07;;
54121;SDS011;40029;58.708;50.190;2022-10-16T06:12:21;15.20;;;7.45;;
54121;SDS011;40029;58.708;50.190;2022-10-16T06:14:52;16.20;;;8.00;;
54121;SDS011;40029;58.708;50.190;2022-10-16T06:17:23;11.90;;;6.22;;
54121;SDS011;40029;58.708;50.190;2022-10-16T06:19:54;16.60;;;8.30;;
54121;SDS011;40029;58.708;50.190;2022-10-16T06:22:25;21.33;;;10.02;;
54121;SDS011;40029;58.708;50.190;2022-10-16T06:24:56;13.40;;;6.65;;
54121;SDS011;40029;58.708;50.190;2022-10-16T06:27:27;23.88;;;11.40;;
54121;SDS011;40029;58.708;50.190;2022-10-16T06:29:58;29.35;;;13.05;;
54121;SDS011;40029;58.708;50.190;2022-10-16T06:32:29;13.07;;;7.22;;
54121;SDS011;40029;58.708;50.190;2022-10-16T06:35:00;9.07;;;5.18;;
54121;SDS011;40029;58.708;50.190;2022-10-16T06:37:33;14.98;;;7.28;;
54121;SDS011;40029;58.708;50.190;2022-10-16T06:40:04;6.50;;;4.18;;
54121;SDS011;40029;58.708;50.190;2022-10-16T06:42:35;9.93;;;4.20;;
54121;SDS011;40029;58.708;50.190;2022-10-16T06:45:07;6.22;;;3.80;;
54121;SDS011;40029;58.708;50.190;2022-10-16T06:47:38;9.80;;;4.85;;
54121;SDS011;40029;58.708;50.190;2022-10-16T06:50:09;18.90;;;4.90;;
54121;SDS011;40029;58.708;50.190;2022-10-16T06:52:40;7.97;;;4.55;;
54121;SDS011;40029;58.708;50.190;2022-10-16T06:55:11;8.18;;;3.75;;
54121;SDS011;40029;58.708;50.190;2022-10-16T06:57:43;13.73;;;6.10;;
54121;SDS011;40029;58.708;50.190;2022-10-16T07:00:14;14.10;;;3.97;;
54121;SDS011;40029;58.708;50.190;2022-10-16T07:02:45;18.90;;;6.22;;
54121;SDS011;40029;58.708;50.190;2022-10-16T07:05:16;9.95;;;4.47;;
54121;SDS011;40029;58.708;50.190;2022-10-16T07:07:47;12.32;;;4.82;;
54121;SDS011;40029;58.708;50.190;2022-10-16T07:10:18;14.10;;;4.03;;
54121;SDS011;40029;58.708;50.190;2022-10-16T07:12:49;10.57;;;4.20;;
54121;SDS011;40029;58.708;50.190;2022-10-16T07:15:20;19.58;;;6.00;;
54121;SDS011;40029;58.708;50.190;2022-10-16T07:17:51;6.57;;;4.15;;
54121;SDS011;40029;58.708;50.190;2022-10-16T07:20:23;5.80;;;3.50;;
54121;SDS011;40029;58.708;50.190;2022-10-16T07:22:54;16.17;;;10.13;;
54121;SDS011;40029;58.708;50.190;2022-10-16T07:25:25;28.00;;;13.50;;
54121;SDS011;40029;58.708;50.190;2022-10-16T07:27:56;13.80;;;6.60;;
54121;SDS011;40029;58.708;50.190;2022-10-16T07:30:27;9.63;;;5.15;;
54121;SDS011;40029;58.708;50.190;2022-10-16T07:32:58;10.05;;;5.30;;
54121;SDS011;40029;58.708;50.190;2022-10-16T07:35:29;11.45;;;5.25;;
54121;SDS011;40029;58.708;50.190;2022-10-16T07:38:00;10.38;;;5.88;;
54121;SDS011;40029;58.708;50.190;2022-10-16T07:40:31;14.18;;;7.53;;
54121;SDS011;40029;58.708;50.190;2022-10-16T07:43:02;13.60;;;7.47;;
54121;SDS011;40029;58.708;50.190;2022-10-16T07:45:36;16.92;;;9.70;;
54121;SDS011;40029;58.708;50.190;2022-10-16T07:48:07;26.48;;;15.50;;
54121;SDS011;40029;58.708;50.190;2022-10-16T07:50:38;22.23;;;10.10;;
54121;SDS011;40029;58.708;50.190;2022-10-16T07:53:10;17.90;;;5.90;;
54121;SDS011;40029;58.708;50.190;2022-10-16T07:55:42;20.90;;;10.13;;
54121;SDS011;40029;58.708;50.190;2022-10-16T07:58:13;32.15;;;12.80;;
54121;SDS011;40029;58.708;50.190;2022-10-16T08:00:44;22.45;;;10.77;;
54121;SDS011;40029;58.708;50.190;2022-10-16T08:03:15;38.22;;;18.38;;
54121;SDS011;40029;58.708;50.190;2022-10-16T08:05:46;18.08;;;8.90;;
54121;SDS011;40029;58.708;50.190;2022-10-16T08:08:18;19.98;;;9.85;;
54121;SDS011;40029;58.708;50.190;2022-10-16T08:10:49;11.65;;;6.70;;
54121;SDS011;40029;58.708;50.190;2022-10-16T08:13:20;12.57;;;6.78;;
54121;SDS011;40029;58.708;50.190;2022-10-16T08:15:51;11.75;;;6.07;;
54121;SDS011;40029;58.708;50.190;2022-10-16T08:18:24;10.95;;;6.43;;
54121;SDS011;40029;58.708;50.190;2022-10-16T08:20:56;12.63;;;6.85;;
54121;SDS011;40029;58.708;50.190;2022-10-16T08:23:28;10.73;;;6.65;;
54121;SDS011;40029;58.708;50.190;2022-10-16T08:26:04;15.77;;;8.27;;
54121;SDS011;40029;58.708;50.190;2022-10-16T08:28:37;56.78;;;21.77;;
54121;SDS011;40029;58.708;50.190;2022-10-16T08:31:13;15.80;;;8.02;;
54121;SDS011;40029;58.708;50.190;2022-10-16T08:33:45;24.38;;;10.90;;
54121;SDS011;40029;58.708;50.190;2022-10-16T08:36:17;14.73;;;7.82;;
54121;SDS011;40029;58.708;50.190;2022-10-16T08:38:49;13.48;;;6.68;;
54121;SDS011;40029;58.708;50.190;2022-10-16T08:44:25;11.85;;;7.95;;
54121;SDS011;40029;58.708;50.190;2022-10-16T08:47:11;13.80;;;7.32;;
54121;SDS011;40029;58.708;50.190;2022-10-16T08:49:59;16.23;;;8.57;;
54121;SDS011;40029;58.708;50.190;2022-10-16T08:52:35;17.13;;;7.75;;
54121;SDS011;40029;58.708;50.190;2022-10-16T08:55:31;19.27;;;10.20;;
54121;SDS011;40029;58.708;50.190;2022-10-16T08:58:14;23.38;;;11.70;;
54121;SDS011;40029;58.708;50.190;2022-10-16T09:00:53;22.02;;;12.10;;
54121;SDS011;40029;58.708;50.190;2022-10-16T09:06:07;17.85;;;8.55;;
54121;SDS011;40029;58.708;50.190;2022-10-16T09:11:45;24.15;;;11.40;;
54121;SDS011;40029;58.708;50.190;2022-10-16T09:17:12;21.13;;;10.27;;
54121;SDS011;40029;58.708;50.190;2022-10-16T09:20:27;16.40;;;10.57;;
54121;SDS011;40029;58.708;50.190;2022-10-16T09:26:00;16.27;;;9.07;;
54121;SDS011;40029;58.708;50.190;2022-10-16T09:28:34;23.15;;;9.65;;
54121;SDS011;40029;58.708;50.190;2022-10-16T09:31:12;25.15;;;9.73;;
54121;SDS011;40029;58.708;50.190;2022-10-16T09:33:52;16.13;;;8.93;;
54121;SDS011;40029;58.708;50.190;2022-10-16T09:36:30;17.75;;;8.00;;
54121;SDS011;40029;58.708;50.190;2022-10-16T09:39:24;26.13;;;10.40;;
54121;SDS011;40029;58.708;50.190;2022-10-16T09:42:19;14.13;;;7.93;;
54121;SDS011;40029;58.708;50.190;2022-10-16T09:44:59;21.63;;;10.07;;
54121;SDS011;40029;58.708;50.190;2022-10-16T09:47:35;22.80;;;9.30;;
54121;SDS011;40029;58.708;50.190;2022-10-16T09:50:26;21.48;;;10.73;;
54121;SDS011;40029;58.708;50.190;2022-10-16T09:53:08;30.00;;;13.30;;
54121;SDS011;40029;58.708;50.190;2022-10-16T09:55:49;24.60;;;11.23;;
54121;SDS011;40029;58.708;50.190;2022-10-16T09:58:23;31.27;;;13.98;;
54121;SDS011;40029;58.708;50.190;2022-10-16T10:00:55;31.80;;;16.80;;
54121;SDS011;40029;58.708;50.190;2022-10-16T10:03:36;24.95;;;9.70;;
54121;SDS011;40029;58.708;50.190;2022-10-16T10:06:29;12.52;;;6.85;;
54121;SDS011;40029;58.708;50.190;2022-10-16T10:11:55;18.42;;;8.18;;
54121;SDS011;40029;58.708;50.190;2022-10-16T10:20:13;23.90;;;11.45;;
54121;SDS011;40029;58.708;50.190;2022-10-16T10:26:02;18.85;;;9.45;;
54121;SDS011;40029;58.708;50.190;2022-10-16T10:31:49;17.35;;;8.05;;
54121;SDS011;40029;58.708;50.190;2022-10-16T10:40:20;16.02;;;9.15;;
54121;SDS011;40029;58.708;50.190;2022-10-16T10:42:57;18.77;;;10.10;;
54121;SDS011;40029;58.708;50.190;2022-10-16T10:51:05;22.73;;;13.20;;
54121;SDS011;40029;58.708;50.190;2022-10-16T10:53:53;20.27;;;10.90;;
54121;SDS011;40029;58.708;50.190;2022-10-16T10:56:51;27.90;;;13.48;;
54121;SDS011;40029;58.708;50.190;2022-10-16T11:07:58;24.30;;;12.07;;
54121;SDS011;40029;58.708;50.190;2022-10-16T11:11:06;125.95;;;51.83;;
54121;SDS011;40029;58.708;50.190;2022-10-16T11:14:11;50.88;;;24.95;;
54121;SDS011;40029;58.708;50.190;2022-10-16T11:22:51;26.30;;;15.18;;
54121;SDS011;40029;58.708;50.190;2022-10-16T11:25:27;28.27;;;13.65;;
54121;SDS011;40029;58.708;50.190;2022-10-16T11:28:09;20.45;;;11.02;;
54121;SDS011;40029;58.708;50.190;2022-10-16T11:30:52;21.35;;;11.48;;
54121;SDS011;40029;58.708;50.190;2022-10-16T11:33:39;27.38;;;11.35;;
54121;SDS011;40029;58.708;50.190;2022-10-16T11:36:25;48.40;;;20.10;;
54121;SDS011;40029;58.708;50.190;2022-10-16T11:39:30;37.53;;;16.45;;
54121;SDS011;40029;58.708;50.190;2022-10-16T11:42:16;32.15;;;13.10;;
54121;SDS011;40029;58.708;50.190;2022-10-16T11:48:12;14.82;;;6.82;;
54121;SDS011;40029;58.708;50.190;2022-10-16T11:51:07;17.17;;;7.65;;
54121;SDS011;40029;58.708;50.190;2022-10-16T11:53:50;57.95;;;22.45;;
54121;SDS011;40029;58.708;50.190;2022-10-16T11:56:32;81.22;;;32.70;;
54121;SDS011;40029;58.708;50.190;2022-10-16T12:08:08;65.22;;;29.02;;
54121;SDS011;40029;58.708;50.190;2022-10-16T12:10:43;75.95;;;25.75;;
54121;SDS011;40029;58.708;50.190;2022-10-16T12:13:33;66.55;;;28.77;;
54121;SDS011;40029;58.708;50.190;2022-10-16T12:19:02;42.47;;;18.05;;
54121;SDS011;40029;58.708;50.190;2022-10-16T12:21:41;54.30;;;20.83;;
54121;SDS011;40029;58.708;50.190;2022-10-16T12:24:50;51.45;;;22.52;;
54121;SDS011;40029;58.708;50.190;2022-10-16T12:27:24;64.10;;;27.88;;
54121;SDS011;40029;58.708;50.190;2022-10-16T12:29:57;57.70;;;26.20;;
54121;SDS011;40029;58.708;50.190;2022-10-16T12:32:31;42.42;;;20.10;;
54121;SDS011;40029;58.708;50.190;2022-10-16T12:35:17;43.92;;;21.83;;
54121;SDS011;40029;58.708;50.190;2022-10-16T12:37:54;31.88;;;13.95;;
54121;SDS011;40029;58.708;50.190;2022-10-16T12:40:39;24.23;;;12.05;;
54121;SDS011;40029;58.708;50.190;2022-10-16T12:43:11;26.80;;;12.90;;
54121;SDS011;40029;58.708;50.190;2022-10-16T12:48:45;32.50;;;15.00;;
54121;SDS011;40029;58.708;50.190;2022-10-16T12:54:19;27.83;;;12.15;;
54121;SDS011;40029;58.708;50.190;2022-10-16T13:00:04;21.08;;;10.73;;
54121;SDS011;40029;58.708;50.190;2022-10-16T13:25:37;37.55;;;11.18;;
54121;SDS011;40029;58.708;50.190;2022-10-16T13:28:11;24.92;;;9.65;;
54121;SDS011;40029;58.708;50.190;2022-10-16T13:30:43;18.70;;;7.03;;
54121;SDS011;40029;58.708;50.190;2022-10-16T13:36:05;18.08;;;9.05;;
54121;SDS011;40029;58.708;50.190;2022-10-16T13:38:37;21.73;;;9.98;;
54121;SDS011;40029;58.708;50.190;2022-10-16T13:41:16;16.92;;;8.77;;
54121;SDS011;40029;58.708;50.190;2022-10-16T13:43:51;17.15;;;9.50;;
54121;SDS011;40029;58.708;50.190;2022-10-16T13:46:26;20.40;;;9.65;;
54121;SDS011;40029;58.708;50.190;2022-10-16T13:49:01;19.45;;;9.52;;
54121;SDS011;40029;58.708;50.190;2022-10-16T13:51:35;19.52;;;9.88;;
54121;SDS011;40029;58.708;50.190;2022-10-16T13:54:11;21.55;;;10.43;;
54121;SDS011;40029;58.708;50.190;2022-10-16T13:56:42;16.52;;;9.00;;
54121;SDS011;40029;58.708;50.190;2022-10-16T14:02:18;16.85;;;8.20;;
54121;SDS011;40029;58.708;50.190;2022-10-16T14:05:10;18.15;;;8.30;;
54121;SDS011;40029;58.708;50.190;2022-10-16T14:07:47;16.48;;;8.43;;
54121;SDS011;40029;58.708;50.190;2022-10-16T14:10:22;19.98;;;8.13;;
54121;SDS011;40029;58.708;50.190;2022-10-16T14:13:02;17.45;;;8.15;;
54121;SDS011;40029;58.708;50.190;2022-10-16T14:15:35;13.27;;;7.15;;
54121;SDS011;40029;58.708;50.190;2022-10-16T14:18:13;12.55;;;6.32;;
54121;SDS011;40029;58.708;50.190;2022-10-16T14:20:50;15.35;;;6.47;;
54121;SDS011;40029;58.708;50.190;2022-10-16T14:26:12;17.98;;;7.03;;
54121;SDS011;40029;58.708;50.190;2022-10-16T14:29:15;18.95;;;9.43;;
54121;SDS011;40029;58.708;50.190;2022-10-16T14:31:59;20.45;;;9.98;;
54121;SDS011;40029;58.708;50.190;2022-10-16T14:34:35;21.25;;;9.32;;
54121;SDS011;40029;58.708;50.190;2022-10-16T14:37:26;19.73;;;9.27;;
54121;SDS011;40029;58.708;50.190;2022-10-16T14:39:59;18.40;;;8.90;;
54121;SDS011;40029;58.708;50.190;2022-10-16T14:42:33;24.40;;;10.02;;
54121;SDS011;40029;58.708;50.190;2022-10-16T14:45:07;20.58;;;10.05;;
54121;SDS011;40029;58.708;50.190;2022-10-16T14:47:49;19.83;;;9.93;;
54121;SDS011;40029;58.708;50.190;2022-10-16T14:50:29;17.00;;;9.35;;
54121;SDS011;40029;58.708;50.190;2022-10-16T14:53:08;23.15;;;9.65;;
54121;SDS011;40029;58.708;50.190;2022-10-16T14:55:58;17.25;;;8.10;;
54121;SDS011;40029;58.708;50.190;2022-10-16T14:58:45;17.88;;;8.35;;
54121;SDS011;40029;58.708;50.190;2022-10-16T15:01:46;19.40;;;9.40;;
54121;SDS011;40029;58.708;50.190;2022-10-16T15:04:18;27.92;;;9.35;;
54121;SDS011;40029;58.708;50.190;2022-10-16T15:07:08;28.60;;;11.23;;
54121;SDS011;40029;58.708;50.190;2022-10-16T15:09:42;24.85;;;10.75;;
54121;SDS011;40029;58.708;50.190;2022-10-16T15:12:14;25.88;;;12.27;;
54121;SDS011;40029;58.708;50.190;2022-10-16T15:14:47;37.60;;;16.80;;
54121;SDS011;40029;58.708;50.190;2022-10-16T15:17:24;25.52;;;13.70;;
54121;SDS011;40029;58.708;50.190;2022-10-16T15:20:00;21.35;;;12.68;;
54121;SDS011;40029;58.708;50.190;2022-10-16T15:22:31;30.17;;;13.15;;
54121;SDS011;40029;58.708;50.190;2022-10-16T15:25:47;31.25;;;13.75;;
54121;SDS011;40029;58.708;50.190;2022-10-16T15:28:04;36.97;;;15.27;;
54121;SDS011;40029;58.708;50.190;2022-10-16T15:30:35;23.67;;;10.57;;
54121;SDS011;40029;58.708;50.190;2022-10-16T15:33:14;30.65;;;10.18;;
54121;SDS011;40029;58.708;50.190;2022-10-16T15:35:48;27.05;;;11.65;;
54121;SDS011;40029;58.708;50.190;2022-10-16T15:38:21;27.23;;;10.75;;
54121;SDS011;40029;58.708;50.190;2022-10-16T15:40:55;27.33;;;10.45;;
54121;SDS011;40029;58.708;50.190;2022-10-16T15:43:26;29.75;;;11.80;;
54121;SDS011;40029;58.708;50.190;2022-10-16T15:46:00;27.02;;;10.25;;
54121;SDS011;40029;58.708;50.190;2022-10-16T15:48:33;10.25;;;6.10;;
54121;SDS011;40029;58.708;50.190;2022-10-16T15:51:04;15.57;;;7.30;;
54121;SDS011;40029;58.708;50.190;2022-10-16T15:53:36;12.95;;;5.95;;
54121;SDS011;40029;58.708;50.190;2022-10-16T15:56:10;13.45;;;7.70;;
54121;SDS011;40029;58.708;50.190;2022-10-16T15:58:43;10.27;;;5.75;;
54121;SDS011;40029;58.708;50.190;2022-10-16T16:01:14;12.55;;;7.05;;
54121;SDS011;40029;58.708;50.190;2022-10-16T16:03:47;16.48;;;7.80;;
54121;SDS011;40029;58.708;50.190;2022-10-16T16:06:18;13.90;;;7.72;;
54121;SDS011;40029;58.708;50.190;2022-10-16T16:08:49;20.48;;;9.05;;
54121;SDS011;40029;58.708;50.190;2022-10-16T16:11:21;15.73;;;7.53;;
54121;SDS011;40029;58.708;50.190;2022-10-16T16:13:54;19.65;;;10.15;;
54121;SDS011;40029;58.708;50.190;2022-10-16T16:16:25;21.58;;;10.40;;
54121;SDS011;40029;58.708;50.190;2022-10-16T16:18:56;20.05;;;8.77;;
54121;SDS011;40029;58.708;50.190;2022-10-16T16:21:28;17.25;;;10.10;;
54121;SDS011;40029;58.708;50.190;2022-10-16T16:24:01;27.63;;;9.63;;
54121;SDS011;40029;58.708;50.190;2022-10-16T16:26:38;22.33;;;10.15;;
54121;SDS011;40029;58.708;50.190;2022-10-16T16:29:14;23.50;;;10.35;;
54121;SDS011;40029;58.708;50.190;2022-10-16T16:31:46;20.35;;;10.27;;
54121;SDS011;40029;58.708;50.190;2022-10-16T16:34:18;24.80;;;11.43;;
54121;SDS011;40029;58.708;50.190;2022-10-16T16:36:49;22.35;;;9.18;;
54121;SDS011;40029;58.708;50.190;2022-10-16T16:39:21;18.67;;;8.95;;
54121;SDS011;40029;58.708;50.190;2022-10-16T16:41:54;12.55;;;7.93;;
54121;SDS011;40029;58.708;50.190;2022-10-16T16:44:26;14.63;;;8.07;;
54121;SDS011;40029;58.708;50.190;2022-10-16T16:46:58;12.77;;;8.00;;
54121;SDS011;40029;58.708;50.190;2022-10-16T16:49:29;12.88;;;6.45;;
54121;SDS011;40029;58.708;50.190;2022-10-16T16:52:00;11.23;;;6.00;;
54121;SDS011;40029;58.708;50.190;2022-10-16T16:54:31;19.40;;;8.02;;
54121;SDS011;40029;58.708;50.190;2022-10-16T16:57:02;23.70;;;8.90;;
54121;SDS011;40029;58.708;50.190;2022-10-16T16:59:34;22.55;;;9.23;;
54121;SDS011;40029;58.708;50.190;2022-10-16T17:02:05;16.50;;;7.43;;
54121;SDS011;40029;58.708;50.190;2022-10-16T17:04:36;17.17;;;8.55;;
54121;SDS011;40029;58.708;50.190;2022-10-16T17:07:08;15.50;;;7.65;;
54121;SDS011;40029;58.708;50.190;2022-10-16T17:09:39;17.40;;;7.03;;